Bogashevo Airport


Codes: UNTT/TOF
Name: Bogashevo Airport
City: Tomsk
Country: Russia
Elevation: 597 ft.
Wikipedia:

Photos at Bogashevo Airport


   Photos courtesy of SpottingLog. You can add your own sightings and photos by signing up for a free trial today.



No photos found.

Weather at Bogashevo Airport


Time (UTC)DescriptionTempratureWindCloud coverageVisibilityPressureHumidity
18-Apr-2024 00:00Broken Clouds5°C9 mph, SW55%10000m1013hPa94%
18-Apr-2024 03:00Broken Clouds5°C9 mph, W71%10000m1015hPa88%
18-Apr-2024 06:00Overcast Clouds8°C9 mph, W85%10000m1017hPa68%
18-Apr-2024 09:00Overcast Clouds10°C9 mph, SW100%10000m1017hPa62%
18-Apr-2024 12:00Overcast Clouds9°C7 mph, S100%10000m1014hPa72%
18-Apr-2024 15:00Light Rain7°C11 mph, S100%10000m1012hPa82%
18-Apr-2024 18:00Moderate Rain7°C16 mph, S100%10000m1006hPa90%
18-Apr-2024 21:00Light Rain9°C11 mph, SW100%10000m1002hPa89%
19-Apr-2024 00:00Light Rain10°C16 mph, W100%10000m1001hPa89%
19-Apr-2024 03:00Light Rain7°C16 mph, W100%10000m1006hPa87%
19-Apr-2024 06:00Light Rain5°C16 mph, NW100%10000m1010hPa87%
19-Apr-2024 09:00Light Rain4°C13 mph, NW100%10000m1014hPa87%
19-Apr-2024 12:00Overcast Clouds3°C11 mph, NW100%10000m1018hPa77%
19-Apr-2024 15:00Overcast Clouds3°C9 mph, NW100%10000m1020hPa74%
19-Apr-2024 18:00Broken Clouds0°C9 mph, NW78%10000m1021hPa85%
19-Apr-2024 21:00Scattered Clouds-1°C9 mph, NW31%10000m1023hPa87%
20-Apr-2024 00:00Scattered Clouds-2°C7 mph, NW38%10000m1026hPa84%
20-Apr-2024 03:00Scattered Clouds0°C7 mph, NW29%10000m1028hPa58%
20-Apr-2024 06:00Scattered Clouds3°C9 mph, NW39%10000m1028hPa45%
20-Apr-2024 09:00Broken Clouds5°C9 mph, NW55%10000m1028hPa43%
20-Apr-2024 12:00Scattered Clouds4°C7 mph, NW36%10000m1029hPa52%
20-Apr-2024 15:00Clear Sky0°C4 mph, N8%10000m1029hPa67%
20-Apr-2024 18:00Broken Clouds-1°C2 mph, NW52%10000m1029hPa66%
20-Apr-2024 21:00Broken Clouds-1°C2 mph, N70%10000m1030hPa68%
21-Apr-2024 00:00Broken Clouds-1°C2 mph, NE76%10000m1031hPa65%
21-Apr-2024 03:00Broken Clouds4°C2 mph, SW64%10000m1030hPa42%
21-Apr-2024 06:00Broken Clouds7°C4 mph, SW76%10000m1029hPa39%
21-Apr-2024 09:00Overcast Clouds5°C4 mph, SW98%10000m1027hPa62%
21-Apr-2024 12:00Light Rain4°C7 mph, S99%10000m1025hPa75%
21-Apr-2024 15:00Overcast Clouds4°C9 mph, S100%10000m1022hPa79%
21-Apr-2024 18:00Light Rain6°C9 mph, SW100%10000m1019hPa84%
21-Apr-2024 21:00Overcast Clouds6°C4 mph, W100%10000m1018hPa96%
22-Apr-2024 00:00Overcast Clouds5°C9 mph, NW100%10000m1019hPa90%
22-Apr-2024 03:00Overcast Clouds5°C9 mph, NW98%10000m1019hPa84%
22-Apr-2024 06:00Overcast Clouds8°C7 mph, NW98%10000m1019hPa62%
22-Apr-2024 09:00Overcast Clouds11°C11 mph, NW95%10000m1017hPa45%
22-Apr-2024 12:00Light Rain10°C9 mph, NW81%10000m1017hPa58%
22-Apr-2024 15:00Broken Clouds6°C4 mph, NW81%10000m1017hPa81%
22-Apr-2024 18:00Broken Clouds3°C4 mph, NW63%10000m1017hPa85%
22-Apr-2024 21:00Scattered Clouds2°C4 mph, NW40%10000m1016hPa90%